首页
METAR-TAF:

METAR-TAF

机场 :

Phoenix Deer Valley Airport

鳳凰城, 亞利桑那州, 美国

纬度: 33-41-25N, 经度: 112-03-56W, 海拔: 450米

当前天气观测

该预报发布于16分钟前的06:53 UTC
风速3节,风向
温度 18°C
湿度 39%
气压 1008 hPa
能見度: 16.1公里
天空无云

METAR: KDVT 020653Z AUTO 19003KT 10SM CLR 18/04 A2978 RMK AO2 SLP068 T01830039 402720133

时间: 00:09 (07:09 UTC)

预报

该预报发布于1小时和29分钟前的05:40 UTC
预报有效从02日的 06点(UTC)到 03日的 06点(UTC)
风速7节,风向东南
能見度: 10公里
天空无云
从 02日的 1700点(UTC)
风速8节,风向
能見度: 10公里
天空无云
从 02日的 1900点(UTC)
风速12节,风向西转西南,有时为19节阵风
能見度: 10公里
天空无云
从 03日的 0300点(UTC)
风速8节,风向西转西南
能見度: 10公里
天空无云

TAF: KDVT 020540Z 0206/0306 13007KT P6SM SKC FM021700 19008KT P6SM SKC FM021900 24012G19KT P6SM SKC FM030300 24008KT P6SM SKC

超过4000个机场的气象观测和天气预报(METAR&TAF报告)。

可查询的气象台以黄色和红色小点在地图上表示。

将鼠标移到小点上方,可查看气象台名称。

然后点击查看天气观测和预报。

如需切换地图:点击带黑十字的绿色按钮放大地图;点击带横线的绿色按钮缩小地图;或者点击绿色箭头查看邻近地区的地图。


METAR-TAF: